Timeline UpdatesTrip UpdatesNews PostsPvt PostsTravel TipsAdmin PostsConv PostsFollowed PostsChat RequestsBlog PostsPNR Posts

Disclaimer
Search
 
 
Thu Apr 24, 2014 21:43:36 ISTHomeTrainsΣChainsAtlasPNRForumGalleryNewsFAQTripsMembersLoginFeedback
No Recent News for this Train
Other Trains in the News **new
Latest...
Additional stoppage on Masudan MSDN) from 09/09/13 on wards at 2.12 to 2.13 am, on regular basis.
Sat Sep 07, 2013 (12:06PM)
⇐ Return Journey: Train# 53044

53043/Howrah-Rajgir Passenger (UnReserved)

Nov 04 2013 (6:56AM)
Change Departure Station:
Change Arrival Station:
Post a Train Travel TipPost a Train Travel Tip **new
Post a Comment/Question/Picture/VideoPost a Comment/Question/Picture/Video
Pantry/Catering
✕ NO Pantry Car
✕ NO Catering
RSA - Rake Sharing
Rake/Coach Composition
Loco
HWH WDM 3A/3D
News    PNR    Forum    Time-Table    Availability    Fare Chart    Map    Arr/Dep History    Trips    Gallery    ΣChains    X/O    Timeline    
Travel Time: 23h 45m    79 halts    Distance: 657 km    Avg Speed: 27 km/hr
Type: Passenger
Zone: ER/Eastern
Departs @ 11:10 (Avg 12m late)
Platform# 10
SMTWTFS
Kolkata Howrah Junction/HWH 
Arrives @ 10:55 +1 night (Avg 2h 4m late)
Platform# ???
SMTWTFS
Rajgir/RGD 

79 halts. 159 intermediate Stations between Kolkata Howrah Junction and Rajgir

Show ALL intermediate Stations  Show Old Time-Table

#CodeStation NameX/OArrivesAvgDepartsAvgHaltPFDay#KmSpeedElevZoneAddress
1HWH»Kolkata Howrah Junction (23)»  -11:10+121010.04510mERHowrah 711101, West Bengal
2SRPSerampore (4)X  11:36+2611:39+263m--119.73811mERdist - hooghly, West Bengal
3SHESeoraphuli Junction (6)  11:43+2611:45+262m--122.27113mERBaidyabati, West Bengal
4CGRChandan Nagar (3)X  11:54+2811:57+303m--132.86016mERDist -HOOGHLY - 712136, West Bengal
5CNSChuchura (3)X  12:00+2912:01+291m--135.82515mERDist - HOOGHLY - 712102, West Bengal
6BDCBandel Junction (7)X  12:10+2812:14+304m--139.67514mERdist - HOOGHLY, West Bengal
7PDAPundooah (3)  12:31+3712:32+371m--160.87418mERPandua, West Bengal
8MYMMemari (4)  12:49+3912:50+391m--181.85825mERMemari, West Bengal
9BWNBarddhaman Junction (8)X  13:16+4113:21+505m--1106.84934mERDist - Barddhaman, West Bengal
10KANKhana Junction (5)X  13:37+1:0013:38+1:001m--1119.95142mERDist - Bardhaman, West Bengal
11JTLJhapater Dhal (3)  13:45+1:0313:46+1:041m--1125.83836mERDist - Bardhaman, West Bengal
12BPSBanpas (3)  13:52+1:0613:53+1:071m--1129.63746mERDist - Bardhaman, West Bengal
13NRXNoadar Dhal (2)  13:59+1:0714:00+1:091m--1133.35546mERdist - bardhaman, West Bengal
14GKHGuskara (2)  14:07+1:0914:12+1:065m--1139.77441mERDist - Bardhaman, West Bengal
15PCQPichkurirdhal (3)X  14:17+1:0914:18+1:131m--1145.95738mERDist - Bardhaman, West Bengal
16BDHBhedia (2)X  14:23+1:1414:24+1:151m--1150.65341mERDist - Bardhaman, West Bengal
17BHPBolpur Shantiniketan (3)  14:33+1:1114:36+1:113m--1158.64259mERBolpur, West Bengal
18PNEPrantik (3)  14:42+1:1814:43+1:221m--1162.94748mERPrantik, West Bengal
19KPLEKopai (2)X  14:52+1:2414:53+1:301m--1169.96148mERDist - Birbhum, West Bengal
20AMPAhmadpur Junction (3)X  15:01+1:3215:02+1:331m--1178.15646mERDist - Birbhum, West Bengal
21BSLEBataspur (2)  15:08+1:3415:09+1:371m--1183.75154mERDist - Birbhum, West Bengal
22SNTSainthia Junction (4)X  15:18+1:3915:20+1:442m31191.38758mERDist - Birbhum, West Bengal
23GHLEGadadharpur (3)X  15:25+1:4815:26+1:491m11198.67152mERDist - Birbhum, West Bengal
24MLVMallarpur (3)  15:33+1:5115:34+1:511m--1206.95246mERDist - Birbhum, West Bengal
25TPFTarapith Road (2)X  15:40+1:4915:41+1:501m--1212.12245mERDist - Birbhum, West Bengal
26RPHRampurhat (3)  16:01+1:3716:08+1:407m--1219.35041mERDIST - Birbhum, West Bengal
27NHTNalhati Junction (4)X  16:25+1:5516:27+1:572m31233.48648mERNalhati, West Bengal
28CTRChatra (3)  16:33+2:0016:34+2:021m--1242.06542mERChatra, West Bengal
29MRRMurarai (3)  16:41+2:0416:42+2:071m--1249.61336mERMurarai, West Bengal
30BSBRBanshlai Bridge (2)XO  17:05+2:0617:06+2:061m--1254.61035mERState Highway 5, West Bengal
31RJGRajgram (3)O  17:46+1:3717:48+1:372m31261.35232mERRajgram, West Bengal
32NGFNagarnabi (3)  17:54+1:3717:56+1:372m31266.54630mERState Highway 5, Jharkhand
33PKRPakur (2)  18:03+1:3718:07+1:384m11271.95137mERDist:- Pakur, Jharkhand
34TBBTilbhita (3)  18:12+1:4018:13+1:441m--1276.14531mERTilbhita, Jharkhand
35KLPKotalpukur (3)X  18:23+1:4218:24+1:441m--1283.72240mERKotalpukur, Jharkhand
36GMANGumani (3)  18:42+1:3618:43+1:361m--1290.34431mERGumani, Jharkhand
37BHWBarharwa Junction (3)X  18:53+1:3718:58+1:445m11297.75336mERBarharwa, Jharkhand
38BKLEBakudi (3)  19:07+1:4819:08+1:551m--1305.65765mERBakudi, Jharkhand
39TPHTinpahar Junction (3)  19:17+2:0819:19+2:192m11314.28145mERBamangawan, Jharkhand
40KXEKalian Chak  19:24+2:2219:25+2:251m--1320.96545mERKalian Chak, Jharkhand
41TLJTaljhariX  19:30+2:2619:31+2:291m--1326.31338mERTaljhari, Jharkhand
42MJPMaharajpur (2)X  20:25+1:5620:32+2:017m--1338.24434mERMoharajpur, Jharkhand
43SLJSakrigali Junction (3)X  20:40+2:0420:46+2:086m--1344.13045mERSakrigali, Jharkhand
44SBGSahibganj Junction (3)X  21:02+2:0521:12+2:1910m21352.13538mERSahibganj, Jharkhand
45MZCMirza Cheuki (3)  21:38+2:2121:40+2:322m--1367.23638mERBihar, Bihar
46PPTPirpainti (2)X  21:54+2:3122:02+2:378m--1375.73653mERBhagalpur, Bihar
47SVRPShivanarayanpur (2)X  22:17+2:3122:18+2:351m--1384.63847mERShivanarayanpur, Bihar
48CLGKahalgaon (2)O  22:36+2:4322:57+2:3521m21396.03744mERBhagalpur, Bihar
49EKCEkchari (1)  23:04+2:3623:05+2:371m11400.46937mERNational Highway 80, Bihar
50GGAGhoga (2)  23:10+2:4023:15+2:415m--1406.15842mERGhoga, Bihar
51LMMLailakh Mamalkha (2)  23:21+2:4323:22+2:451m--1411.94036mERLailakh Mamlkha, Bihar
52SBOSabaur (3)  23:32+2:4523:34+2:472m--1418.54542mERSabour, Bihar
53BGPBhagalpur Junction (6)X  23:44+2:3523:59+2:3415m--1426.12649mERBhagalpur, Bihar
54NATNathnagar  00:10+2:5000:11+2:501m--2430.89948mERBhagalpur, Bihar
55AKNAkbarnagar  00:19+2:5200:21+2:522m--2441.05039mERTilakpur, Bihar
56SGGSultanGanj  00:33+2:4000:37+2:444m--2451.06042mERSultanganj, Bihar
57BUPBariarpur (3)  00:55+2:5700:57+2:592m--2469.01642mERMunger, Bihar
58JMPJamalpur Junction (4)X  01:38+2:2601:48+2:3510m--2480.14359mERJamalpur 06344-243101, Bihar
59DRTPDasharathpur  01:57+2:5701:59+2:592m--2486.56548mERDharhara, Bihar
60DRHDharhara (2)  02:04+3:0202:06+3:022m--2491.96055mERDharhara, Bihar
61MSDNMasudan  02:12+3:0302:13+3:031m--2497.94845mERMasudan, Bihar
62AHAAbhaipur  02:18+3:0302:19+3:041m--2501.910952mERAbhaipur, Bihar
63KJHKajra (2)X  02:23+3:0802:25+3:082m--2509.22550mERLakhisarai District, Bihar
64DNREDhanauri  02:48+3:0202:50+3:082m--2518.91848mERNational Highway 80, Bihar
65KIULKiul Junction (5)O  03:10+3:0803:38+3:0628m--2524.91053mECRDist. Lakhisarai, Bihar
66LKRLuckeesarai Junction (2)X  03:46+3:0903:48+3:092m--2526.35652mECRLakhisarai, Bihar
67MKBMankathaX  03:54+3:1103:55+3:131m--2531.93847mECRNational Highway 80, Bihar
68BRYABarhiyaXO  04:10+3:1204:12+3:162m--2541.3747mECRBarahiya, Bihar
69RDUMRampur DumraO  05:02+2:4605:04+2:452m--2546.91046mECRNational Highway 80, Bihar
70HTZHathidah Junction (2)  05:27+2:3005:29+2:302m22550.72050mECRMusahari, Bihar
71MKAMokama Junction (3)X  05:54+2:2705:56+2:332m--2559.11148mECRPatna, Bihar
72MORMor  06:34+2:0306:36+2:022m--2566.32846mECRMor, Bihar
73PHKPunarakh  06:54+2:0006:55+2:031m--2574.64851mECRPunarakh, Bihar
74BARHBarh (3)X  07:08+2:0207:10+2:072m--2585.04249mECRBarh, Bihar
75ATLAthmal Gola (2)  07:23+2:0707:25+2:082m--2594.13652mECRPatna, Bihar
76BKPBakhtiyarpur Junction (5)O  07:40+2:0608:05+2:3725m--2603.26451mECRPatna, Bihar
77HRTHarnaut (3)  08:15+2:4208:16+2:471m--2613.94449mECRHarnaut, Bihar
78WENAWena (2)  08:23+2:4708:24+2:551m--2619.03147mECRWena, Bihar
79BEHSBihar Sharif (2)  08:51+2:5508:52+3:021m--2633.03456mECR06112-222306, Bihar
80NLDNalanda (2)X  09:14+2:5009:15+2:561m--2645.5763mECRNational Highway 82, Bihar
81RGD•Rajgir (3)•  10:55+2:04---2656.8-71mECRRajgir, Bihar
Scroll to Top
Scroll to Bottom